Time;durP1;ratioP1;P1;durP2;ratioP2;P2;SDS_P1;SDS_P2;PMS_P1;PMS_P2;Temp;Humidity;BMP_temperature;BMP_pressure;BME280_temperature;BME280_humidity;BME280_pressure;Samples;Min_cycle;Max_cycle;Signal;HPM_P1;HPM_P2
2022/02/02 00:00:19;;;;;;;14.68;3.40;;;11.10;99.90;;;;;;5011673;28;20240;-78
2022/02/02 00:02:57;;;;;;;14.13;3.22;;;11.10;99.90;;;;;;5012943;28;20579;-78
2022/02/02 00:13:14;;;;;;;12.50;3.72;;;11.20;99.90;;;;;;4961250;28;20277;-78
2022/02/02 00:16:04;;;;;;;11.45;3.65;;;11.20;99.90;;;;;;5012668;28;20193;-78
2022/02/02 00:18:48;;;;;;;15.45;3.50;;;11.20;99.90;;;;;;4991952;28;20642;-78
2022/02/02 00:21:42;;;;;;;13.43;3.30;;;11.10;99.90;;;;;;5012427;28;20194;-78
2022/02/02 00:24:20;;;;;;;10.30;2.70;;;11.00;99.90;;;;;;5002037;28;20662;-78
2022/02/02 00:26:48;;;;;;;17.08;3.60;;;10.80;99.90;;;;;;5009116;28;20261;-78
2022/02/02 00:29:19;;;;;;;17.77;4.93;;;10.70;99.90;;;;;;4994960;28;20202;-78
2022/02/02 00:31:51;;;;;;;17.35;3.70;;;10.70;99.90;;;;;;5003098;28;20210;-78
2022/02/02 00:34:22;;;;;;;17.45;3.58;;;10.50;99.90;;;;;;5012884;28;20178;-78
2022/02/02 00:36:58;;;;;;;18.45;3.25;;;10.50;99.90;;;;;;4978559;28;20273;-78
2022/02/02 00:39:25;;;;;;;13.52;4.07;;;10.40;99.90;;;;;;5008664;28;20240;-78
2022/02/02 00:41:53;;;;;;;11.82;3.08;;;10.40;99.90;;;;;;4993455;28;20523;-78
2022/02/02 00:44:20;;;;;;;9.93;3.00;;;10.40;99.90;;;;;;5012311;28;20183;-78
2022/02/02 00:46:46;;;;;;;17.85;4.45;;;10.30;99.90;;;;;;4986727;28;20781;-78
2022/02/02 00:49:13;;;;;;;13.60;5.25;;;10.30;99.90;;;;;;5003139;28;20209;-78
2022/02/02 00:51:44;;;;;;;10.27;3.08;;;10.30;99.90;;;;;;5011413;28;20272;-78
2022/02/02 00:54:16;;;;;;;13.50;4.97;;;10.30;99.90;;;;;;4996963;28;20178;-78
2022/02/02 00:56:43;;;;;;;17.73;3.63;;;10.20;99.90;;;;;;5012178;28;20186;-79
2022/02/02 00:59:09;;;;;;;12.48;3.25;;;10.20;99.90;;;;;;5012054;28;20210;-79
2022/02/02 01:01:35;;;;;;;12.85;3.38;;;10.20;99.90;;;;;;5011585;28;20182;-78
2022/02/02 01:04:01;;;;;;;19.88;4.97;;;10.20;99.90;;;;;;5011967;28;20614;-78
2022/02/02 01:06:29;;;;;;;15.03;4.03;;;10.20;99.90;;;;;;5012099;28;20224;-78
2022/02/02 01:09:14;;;;;;;13.40;4.10;;;10.10;99.90;;;;;;5011957;28;20205;-79
2022/02/02 01:19:42;;;;;;;25.17;6.20;;;10.20;99.90;;;;;;5005617;28;20202;-78
2022/02/02 01:30:09;;;;;;;14.38;4.28;;;10.20;99.90;;;;;;5007447;28;20198;-78
2022/02/02 01:32:35;;;;;;;15.07;4.10;;;10.20;99.90;;;;;;5002550;28;20178;-78
2022/02/02 01:35:01;;;;;;;16.10;3.67;;;10.10;99.90;;;;;;4994196;28;20185;-78
2022/02/02 01:37:28;;;;;;;19.20;4.10;;;10.10;99.90;;;;;;4994061;28;20672;-78
2022/02/02 01:40:01;;;;;;;23.52;5.38;;;10.10;99.90;;;;;;4993541;28;20221;-78
2022/02/02 01:42:34;;;;;;;17.60;3.45;;;10.10;99.90;;;;;;5011357;28;20174;-78
2022/02/02 01:45:09;;;;;;;20.23;4.40;;;10.10;99.90;;;;;;5011664;28;20174;-79
2022/02/02 01:47:45;;;;;;;17.45;4.97;;;10.10;99.90;;;;;;5008275;28;20623;-78
2022/02/02 01:50:19;;;;;;;14.32;4.43;;;10.10;99.90;;;;;;4993358;28;20682;-78
2022/02/02 01:53:06;;;;;;;18.35;4.07;;;10.20;99.90;;;;;;4993991;28;20549;-78
2022/02/02 01:55:38;;;;;;;15.23;4.28;;;10.20;99.90;;;;;;5009302;28;20189;-78
2022/02/02 02:00:37;;;;;;;14.52;4.38;;;10.30;99.90;;;;;;5011170;28;20190;-78
2022/02/02 02:03:03;;;;;;;21.63;4.73;;;10.40;99.90;;;;;;5011384;28;20177;-78
2022/02/02 02:05:29;;;;;;;13.33;3.70;;;10.40;99.90;;;;;;5011432;28;20217;-78
2022/02/02 02:07:55;;;;;;;18.20;3.60;;;10.40;99.90;;;;;;5010841;28;20252;-78
2022/02/02 02:10:22;;;;;;;13.30;4.57;;;10.40;99.90;;;;;;5012049;28;20735;-78
2022/02/02 02:12:54;;;;;;;16.58;3.40;;;10.40;99.90;;;;;;4979876;28;20171;-78
2022/02/02 02:15:24;;;;;;;15.45;4.88;;;10.50;99.90;;;;;;4990519;28;20185;-78
2022/02/02 02:17:50;;;;;;;18.73;4.88;;;10.50;99.90;;;;;;4993585;28;20293;-77
2022/02/02 02:20:16;;;;;;;20.92;4.50;;;10.60;99.90;;;;;;5011148;28;20269;-78
2022/02/02 02:22:43;;;;;;;17.40;3.83;;;10.60;99.90;;;;;;4993245;28;20733;-77
2022/02/02 02:25:09;;;;;;;17.13;4.15;;;10.60;99.90;;;;;;5011580;28;20951;-77
2022/02/02 02:27:35;;;;;;;26.33;4.90;;;10.60;99.90;;;;;;4993512;28;20183;-78
2022/02/02 02:35:28;;;;;;;16.50;4.10;;;10.60;99.90;;;;;;4996981;28;20611;-79
2022/02/02 02:56:54;;;;;;;16.63;4.03;;;10.60;99.90;;;;;;4994898;28;20178;-78
2022/02/02 02:59:33;;;;;;;17.63;4.10;;;10.60;99.90;;;;;;5014157;28;20194;-79
2022/02/02 03:35:00;;;;;;;16.90;4.13;;;10.50;99.90;;;;;;5013725;28;20256;-75
2022/02/02 03:59:01;;;;;;;11.18;3.90;;;10.70;99.90;;;;;;5011149;28;20225;-76
2022/02/02 04:04:39;;;;;;;14.65;4.28;;;10.70;99.90;;;;;;5012992;28;20573;-76
2022/02/02 04:07:09;;;;;;;16.02;3.42;;;10.70;99.90;;;;;;5011868;28;20189;-76
2022/02/02 04:09:38;;;;;;;13.98;3.63;;;10.70;99.90;;;;;;4995063;28;20202;-76
2022/02/02 04:58:02;;;;;;;14.20;4.00;;;10.70;99.90;;;;;;5011997;28;20654;-75
2022/02/02 05:05:59;;;;;;;19.67;5.05;;;10.70;99.90;;;;;;5011916;28;20541;-76
2022/02/02 05:08:35;;;;;;;18.23;4.15;;;10.70;99.90;;;;;;4992999;28;20205;-76
2022/02/02 05:14:43;;;;;;;20.70;4.90;;;10.70;99.90;;;;;;4982581;28;20190;-75
2022/02/02 05:22:46;;;;;;;19.23;3.95;;;10.70;99.90;;;;;;5011242;28;20269;-75
2022/02/02 05:49:02;;;;;;;17.87;4.37;;;10.60;99.90;;;;;;4993752;28;20207;-76
2022/02/02 05:51:49;;;;;;;16.15;4.40;;;10.60;99.90;;;;;;5010118;28;20212;-76
2022/02/02 05:54:15;;;;;;;18.67;3.60;;;10.60;99.90;;;;;;5010737;28;20181;-76
2022/02/02 05:56:50;;;;;;;19.02;5.15;;;10.60;99.90;;;;;;4993866;28;20174;-76
2022/02/02 05:59:21;;;;;;;19.60;4.93;;;10.60;99.90;;;;;;5007771;28;20206;-76
2022/02/02 06:01:53;;;;;;;13.15;3.80;;;10.60;99.90;;;;;;5011050;28;20186;-76
2022/02/02 06:04:26;;;;;;;17.77;5.15;;;10.60;99.90;;;;;;5011210;28;20182;-76
2022/02/02 06:06:55;;;;;;;21.23;4.88;;;10.60;99.90;;;;;;5013594;28;20186;-76
2022/02/02 06:09:29;;;;;;;18.67;4.53;;;10.60;99.90;;;;;;5006038;28;20261;-77
2022/02/02 06:11:55;;;;;;;16.60;4.30;;;10.60;99.90;;;;;;5011201;28;20228;-77
2022/02/02 06:14:26;;;;;;;17.17;4.10;;;10.60;99.90;;;;;;5014961;28;20209;-77
2022/02/02 06:16:54;;;;;;;17.23;5.07;;;10.60;99.90;;;;;;5015046;28;20537;-76
2022/02/02 06:19:20;;;;;;;18.00;4.65;;;10.60;99.90;;;;;;5014714;28;20289;-77
2022/02/02 06:22:01;;;;;;;12.45;3.55;;;10.60;99.90;;;;;;5014692;28;20182;-76
2022/02/02 06:24:48;;;;;;;21.55;4.57;;;10.60;99.90;;;;;;5014899;28;20174;-76
2022/02/02 06:27:21;;;;;;;16.40;3.72;;;10.60;99.90;;;;;;5011717;28;20178;-76
2022/02/02 06:29:52;;;;;;;13.88;4.10;;;10.70;99.90;;;;;;4996693;28;20206;-76
2022/02/02 06:32:24;;;;;;;16.98;3.90;;;10.70;99.90;;;;;;4985638;28;20190;-77
2022/02/02 06:34:58;;;;;;;15.98;4.15;;;10.70;99.90;;;;;;5011303;28;20271;-76
2022/02/02 06:37:25;;;;;;;12.48;4.70;;;10.70;99.90;;;;;;5014202;28;20181;-76
2022/02/02 06:39:52;;;;;;;16.92;4.47;;;10.70;99.90;;;;;;5013715;28;20197;-76
2022/02/02 06:42:19;;;;;;;15.90;4.72;;;10.70;99.90;;;;;;4996715;28;20174;-76
2022/02/02 06:44:45;;;;;;;24.25;5.43;;;10.80;99.90;;;;;;5001247;28;20552;-76
2022/02/02 06:47:11;;;;;;;18.17;3.23;;;10.80;99.90;;;;;;4999675;28;20166;-75
2022/02/02 06:49:39;;;;;;;17.10;4.37;;;10.80;99.90;;;;;;5013993;28;20719;-75
2022/02/02 06:52:17;;;;;;;18.38;4.65;;;10.70;99.90;;;;;;5004631;28;20262;-76
2022/02/02 06:55:09;;;;;;;18.77;4.30;;;10.80;99.90;;;;;;5014469;28;20170;-75
2022/02/02 06:58:15;;;;;;;15.55;5.10;;;10.70;99.90;;;;;;5013804;28;20174;-76
2022/02/02 07:01:14;;;;;;;24.83;4.97;;;10.70;99.90;;;;;;5010863;28;20190;-77
2022/02/02 07:06:30;;;;;;;20.65;5.40;;;10.70;99.90;;;;;;4994634;28;20277;-77
2022/02/02 07:11:54;;;;;;;17.38;4.15;;;10.70;99.90;;;;;;5013610;28;20692;-75
2022/02/02 07:17:39;;;;;;;17.65;5.82;;;10.70;99.90;;;;;;4962005;28;20281;-75
2022/02/02 07:20:09;;;;;;;19.55;4.55;;;10.70;99.90;;;;;;5012234;28;20214;-75
2022/02/02 07:25:32;;;;;;;14.57;5.15;;;10.70;99.90;;;;;;5014003;28;20170;-76
2022/02/02 07:33:05;;;;;;;15.50;4.83;;;10.70;99.90;;;;;;5013416;28;20201;-77
2022/02/02 07:35:49;;;;;;;20.13;4.85;;;10.60;99.90;;;;;;4996002;28;20232;-76
2022/02/02 07:38:19;;;;;;;18.65;4.55;;;10.60;99.90;;;;;;5009871;28;20555;-75
2022/02/02 07:40:50;;;;;;;21.77;5.30;;;10.60;99.90;;;;;;5011318;28;20492;-75
2022/02/02 07:43:28;;;;;;;15.20;5.20;;;10.60;99.90;;;;;;5012455;28;20178;-75
2022/02/02 07:46:08;;;;;;;17.55;4.95;;;10.60;99.90;;;;;;5011868;28;20178;-75
2022/02/02 07:48:39;;;;;;;20.13;6.05;;;10.60;99.90;;;;;;5011880;28;20629;-75
2022/02/02 07:51:07;;;;;;;14.48;4.28;;;10.60;99.90;;;;;;5012310;28;20205;-75
2022/02/02 07:53:45;;;;;;;19.30;4.60;;;10.60;99.90;;;;;;5012751;28;20240;-75
2022/02/02 07:56:15;;;;;;;20.77;4.47;;;10.60;99.90;;;;;;5009101;28;20178;-76
2022/02/02 07:58:44;;;;;;;22.70;4.70;;;10.60;99.90;;;;;;5007564;28;20206;-75
2022/02/02 08:01:12;;;;;;;22.50;4.75;;;10.60;99.90;;;;;;5012419;28;20264;-76
2022/02/02 08:03:41;;;;;;;20.95;4.75;;;10.60;99.90;;;;;;5012921;28;20573;-75
2022/02/02 08:06:09;;;;;;;15.52;4.05;;;10.50;99.90;;;;;;5012861;28;20190;-76
2022/02/02 08:08:37;;;;;;;10.63;3.42;;;10.50;99.90;;;;;;5013075;28;20264;-75
2022/02/02 08:11:10;;;;;;;15.73;4.78;;;10.50;99.90;;;;;;5011932;28;20197;-76
2022/02/02 08:13:48;;;;;;;16.20;3.80;;;10.60;99.90;;;;;;4995210;28;20182;-75
2022/02/02 08:16:16;;;;;;;19.38;5.10;;;10.70;99.90;;;;;;4992513;28;20182;-74
2022/02/02 08:18:45;;;;;;;16.67;4.47;;;10.70;99.90;;;;;;5012485;28;20214;-74
2022/02/02 08:21:11;;;;;;;12.32;4.65;;;10.80;99.90;;;;;;5002801;28;20691;-74
2022/02/02 08:23:37;;;;;;;14.87;4.30;;;10.90;99.90;;;;;;4978673;28;20178;-74
2022/02/02 08:26:10;;;;;;;13.32;3.85;;;11.00;99.90;;;;;;5012581;28;20643;-74
2022/02/02 08:28:37;;;;;;;13.80;4.32;;;11.10;99.90;;;;;;5012280;28;20252;-76
2022/02/02 08:31:04;;;;;;;13.60;3.50;;;11.20;99.90;;;;;;5011227;28;20693;-74
2022/02/02 08:33:34;;;;;;;12.82;4.15;;;11.20;99.90;;;;;;5016123;28;20282;-75
2022/02/02 08:36:03;;;;;;;14.00;3.50;;;11.30;99.90;;;;;;5015458;28;20181;-74
2022/02/02 08:41:04;;;;;;;13.30;3.70;;;11.30;99.90;;;;;;4994213;28;20181;-74
2022/02/02 08:49:03;;;;;;;15.32;3.80;;;11.40;99.90;;;;;;4977698;28;20294;-74
2022/02/02 08:51:33;;;;;;;16.65;3.33;;;11.50;99.90;;;;;;4977628;28;20233;-74
2022/02/02 08:57:52;;;;;;;16.00;3.78;;;11.50;99.90;;;;;;4998369;28;20178;-73
2022/02/02 08:59:53;;;;;;;10.77;2.63;;;11.50;99.90;;;;;;4984221;28;20214;-74
2022/02/02 09:02:24;;;;;;;12.43;3.40;;;11.60;99.90;;;;;;5008254;28;20236;-75
2022/02/02 09:07:36;;;;;;;14.80;3.20;;;11.70;99.90;;;;;;4994070;28;20231;-74
2022/02/02 09:10:09;;;;;;;17.63;3.75;;;11.80;99.90;;;;;;5011808;28;20175;-74
2022/02/02 09:20:04;;;;;;;12.70;4.30;;;12.10;99.90;;;;;;4993892;28;20273;-75
2022/02/02 09:31:27;;;;;;;17.08;4.50;;;12.50;99.90;;;;;;5011085;28;20198;-75
2022/02/02 09:31:28;;;;;;;14.10;4.30;;;12.60;99.90;;;;;;5007016;28;20202;-75
2022/02/02 09:34:05;;;;;;;15.73;3.78;;;12.70;99.90;;;;;;5007428;28;20267;-75
2022/02/02 09:36:33;;;;;;;9.30;3.88;;;12.80;99.90;;;;;;5008770;28;20174;-75
2022/02/02 09:39:07;;;;;;;19.48;4.40;;;12.80;99.90;;;;;;5011196;28;20285;-73
2022/02/02 09:41:52;;;;;;;17.80;4.60;;;12.80;99.90;;;;;;4977188;28;20185;-74
2022/02/02 09:44:23;;;;;;;18.13;3.95;;;12.80;99.90;;;;;;4989231;28;20181;-74
2022/02/02 09:47:04;;;;;;;11.60;3.50;;;12.80;99.90;;;;;;5014883;28;20182;-73
2022/02/02 09:49:39;;;;;;;15.37;5.40;;;12.80;99.90;;;;;;4993897;28;20288;-74
2022/02/02 09:52:13;;;;;;;12.33;3.77;;;12.90;99.90;;;;;;4996924;28;20678;-75
2022/02/02 09:54:59;;;;;;;15.48;4.82;;;13.10;99.90;;;;;;5008823;28;20589;-75
2022/02/02 09:57:55;;;;;;;18.20;5.30;;;13.20;99.90;;;;;;5012345;28;20246;-75
2022/02/02 10:01:17;;;;;;;16.60;3.90;;;13.30;99.90;;;;;;5019471;28;20946;-74
2022/02/02 10:06:01;;;;;;;19.60;4.10;;;13.50;99.90;;;;;;5015310;28;20976;-74
2022/02/02 10:11:52;;;;;;;15.07;5.13;;;14.00;99.90;;;;;;4990174;28;20633;-75
2022/02/02 10:14:36;;;;;;;18.70;4.47;;;14.30;99.90;;;;;;4989045;28;21243;-74
2022/02/02 10:17:08;;;;;;;14.07;4.23;;;14.60;99.90;;;;;;5014165;28;20668;-74
2022/02/02 10:19:36;;;;;;;27.20;6.80;;;14.70;99.90;;;;;;5012441;28;20698;-75
2022/02/02 10:22:20;;;;;;;13.13;4.33;;;14.70;99.90;;;;;;4996756;28;20629;-74
2022/02/02 10:24:52;;;;;;;19.17;5.80;;;14.70;99.90;;;;;;5014172;28;20658;-74
2022/02/02 10:27:34;;;;;;;16.43;4.87;;;14.70;99.90;;;;;;5004139;28;20666;-74
2022/02/02 10:30:05;;;;;;;18.50;5.33;;;14.60;99.90;;;;;;5010836;28;20620;-74
2022/02/02 10:32:36;;;;;;;16.50;5.30;;;14.60;99.90;;;;;;4996956;28;20596;-75
2022/02/02 10:35:05;;;;;;;16.67;5.50;;;14.50;99.90;;;;;;4997221;28;21172;-74
2022/02/02 10:37:32;;;;;;;21.40;4.73;;;14.30;99.90;;;;;;5014476;28;20581;-74
2022/02/02 10:39:58;;;;;;;16.97;5.77;;;14.20;99.90;;;;;;5013665;28;21172;-73
2022/02/02 10:42:39;;;;;;;17.87;5.37;;;14.10;99.90;;;;;;5014294;28;20730;-73
2022/02/02 10:45:20;;;;;;;14.67;4.70;;;13.90;99.90;;;;;;4993370;28;20628;-74
2022/02/02 10:47:49;;;;;;;15.47;5.43;;;13.70;99.90;;;;;;4985503;28;20679;-73
2022/02/02 10:50:37;;;;;;;15.93;4.63;;;13.60;99.90;;;;;;5011476;28;20589;-75
2022/02/02 10:56:05;;;;;;;16.07;4.47;;;13.40;99.90;;;;;;4996240;28;20616;-74
2022/02/02 11:01:31;;;;;;;19.70;5.30;;;13.30;99.90;;;;;;5014093;28;20892;-74
2022/02/02 11:06:41;;;;;;;17.40;5.10;;;13.30;99.90;;;;;;4993638;28;20581;-74
2022/02/02 11:09:10;;;;;;;20.20;4.67;;;13.30;99.90;;;;;;4996374;28;20716;-74
2022/02/02 11:11:46;;;;;;;14.27;5.05;;;13.30;99.90;;;;;;4995825;28;20624;-75
2022/02/02 11:14:52;;;;;;;14.57;5.20;;;13.40;99.90;;;;;;5013550;28;20182;-74
2022/02/02 11:17:51;;;;;;;18.07;5.90;;;13.50;99.90;;;;;;5010935;28;20581;-75
2022/02/02 11:20:18;;;;;;;23.50;7.03;;;13.60;99.90;;;;;;5004692;28;20604;-74
2022/02/02 11:22:55;;;;;;;22.70;5.77;;;13.70;99.90;;;;;;5013448;28;20661;-75
2022/02/02 11:25:23;;;;;;;17.57;4.17;;;13.80;99.90;;;;;;5017336;28;20731;-74
2022/02/02 11:27:54;;;;;;;19.03;4.80;;;13.80;99.90;;;;;;5012052;28;20692;-74
2022/02/02 11:30:23;;;;;;;18.17;5.00;;;13.70;99.90;;;;;;5009284;28;21011;-74
2022/02/02 11:33:01;;;;;;;17.80;5.30;;;13.70;99.90;;;;;;4995400;28;20621;-74
2022/02/02 11:38:19;;;;;;;19.60;5.13;;;13.60;99.90;;;;;;5005976;28;20612;-74
2022/02/02 11:41:15;;;;;;;22.33;5.70;;;13.60;99.90;;;;;;5006374;28;20576;-74
2022/02/02 11:43:55;;;;;;;14.80;4.37;;;13.60;99.90;;;;;;4993990;28;21125;-74
2022/02/02 11:47:07;;;;;;;16.63;4.10;;;13.60;99.90;;;;;;5008740;28;20600;-75
2022/02/02 11:49:43;;;;;;;13.30;4.60;;;13.60;99.90;;;;;;4979111;28;20817;-75
2022/02/02 11:52:35;;;;;;;21.77;6.07;;;13.70;99.90;;;;;;4992197;28;20645;-75
2022/02/02 11:55:03;;;;;;;14.02;4.22;;;13.60;99.90;;;;;;5011863;28;20938;-75
2022/02/02 11:57:36;;;;;;;18.95;6.95;;;13.60;99.90;;;;;;4991948;28;20253;-74
2022/02/02 12:55:57;;;;;;;15.20;4.82;;;12.60;99.90;;;;;;5005975;28;20198;-75
2022/02/02 13:00:35;;;;;;;12.18;4.10;;;12.70;99.90;;;;;;5008779;28;20174;-74
2022/02/02 13:03:01;;;;;;;17.80;4.97;;;12.70;99.90;;;;;;4997078;28;20171;-74
2022/02/02 13:05:27;;;;;;;13.93;4.20;;;12.80;99.90;;;;;;5011195;28;20573;-75
2022/02/02 13:07:54;;;;;;;21.63;4.77;;;12.80;99.90;;;;;;5007946;28;20232;-74
2022/02/02 13:10:25;;;;;;;16.25;3.55;;;12.80;99.90;;;;;;4992807;28;20708;-75
2022/02/02 13:13:19;;;;;;;16.75;5.18;;;12.80;99.90;;;;;;5010730;28;20184;-75
2022/02/02 13:20:58;;;;;;;16.88;5.25;;;12.80;99.90;;;;;;4995541;28;20182;-74
2022/02/02 13:26:26;;;;;;;13.67;3.97;;;12.90;99.90;;;;;;4996432;28;20601;-74
2022/02/02 13:29:08;;;;;;;12.43;3.08;;;12.90;99.90;;;;;;5009014;28;21247;-74
2022/02/02 13:31:56;;;;;;;12.03;3.47;;;12.90;99.90;;;;;;5009934;28;20194;-75
2022/02/02 13:43:54;;;;;;;13.38;3.42;;;12.80;99.90;;;;;;5011348;28;20515;-74
2022/02/02 14:04:01;;;;;;;8.65;2.67;;;12.80;99.90;;;;;;5011274;28;20528;-74
2022/02/02 14:06:39;;;;;;;10.05;3.28;;;12.80;99.90;;;;;;5011323;28;20174;-74
2022/02/02 14:09:16;;;;;;;7.13;2.90;;;12.80;99.90;;;;;;5007940;28;20220;-74
2022/02/02 14:31:26;;;;;;;7.60;3.03;;;12.70;99.90;;;;;;5008461;28;20217;-75
2022/02/02 14:33:59;;;;;;;10.25;3.78;;;12.60;99.90;;;;;;4995011;28;20182;-75
2022/02/02 14:36:29;;;;;;;12.35;5.13;;;12.60;99.90;;;;;;4995444;28;20189;-75
2022/02/02 14:39:03;;;;;;;11.05;4.30;;;12.60;99.90;;;;;;5014139;28;20239;-77
2022/02/02 14:41:58;;;;;;;13.00;5.00;;;12.50;99.90;;;;;;5013853;28;20178;-76
2022/02/02 14:44:37;;;;;;;16.65;4.05;;;12.50;99.90;;;;;;5012470;28;20193;-75
2022/02/02 14:47:22;;;;;;;11.38;3.20;;;12.40;99.90;;;;;;4994201;28;20176;-77
2022/02/02 15:27:29;;;;;;;12.83;3.87;;;12.10;99.90;;;;;;4994287;28;20175;-76
2022/02/02 15:32:20;;;;;;;9.13;3.00;;;12.00;99.90;;;;;;5013098;28;20546;-75
2022/02/02 15:34:54;;;;;;;8.93;2.58;;;12.00;99.90;;;;;;5013391;28;20213;-75
2022/02/02 15:37:45;;;;;;;14.55;3.53;;;11.90;99.90;;;;;;4994283;28;20705;-75
2022/02/02 15:40:14;;;;;;;7.40;2.97;;;11.80;99.90;;;;;;4991223;28;20265;-75
2022/02/02 15:58:55;;;;;;;10.40;3.30;;;11.80;99.90;;;;;;5012595;28;20194;-75
2022/02/02 16:02:07;;;;;;;14.45;5.28;;;11.70;99.90;;;;;;4979101;28;20201;-75
2022/02/02 16:04:31;;;;;;;14.25;5.13;;;11.70;99.90;;;;;;4995563;28;20196;-75
2022/02/02 16:07:01;;;;;;;16.88;5.57;;;11.60;99.90;;;;;;5013001;28;20766;-75
2022/02/02 16:09:35;;;;;;;14.93;5.57;;;11.60;99.90;;;;;;5003152;28;20818;-75
2022/02/02 16:12:45;;;;;;;16.75;7.30;;;11.50;99.90;;;;;;4994906;28;20198;-75
2022/02/02 16:15:01;;;;;;;15.52;6.25;;;11.50;99.90;;;;;;4985000;28;20552;-76
2022/02/02 16:36:32;;;;;;;23.38;6.60;;;11.00;99.90;;;;;;4978817;28;20531;-80
2022/02/02 16:39:06;;;;;;;18.52;7.35;;;10.90;99.90;;;;;;4995298;28;20731;-81
2022/02/02 16:44:17;;;;;;;19.00;8.20;;;10.80;99.90;;;;;;5011290;28;20186;-81
2022/02/02 16:46:43;;;;;;;15.98;7.38;;;10.80;99.90;;;;;;4995320;28;20183;-81
2022/02/02 16:49:09;;;;;;;17.90;7.07;;;10.70;99.90;;;;;;4986225;28;20587;-81
2022/02/02 16:51:40;;;;;;;15.30;5.43;;;10.70;99.90;;;;;;4968463;28;20668;-83
2022/02/02 16:54:10;;;;;;;8.63;4.20;;;10.60;99.90;;;;;;5006371;28;20520;-82
2022/02/02 17:34:48;;;;;;;20.45;12.10;;;10.10;99.90;;;;;;4993833;28;20647;-81
2022/02/02 18:20:12;;;;;;;16.08;10.73;;;10.60;99.90;;;;;;4997083;28;20225;-76
2022/02/02 18:22:46;;;;;;;16.70;9.90;;;10.60;99.90;;;;;;5001527;28;20268;-76
2022/02/02 18:25:21;;;;;;;18.48;9.05;;;10.70;99.90;;;;;;5004754;28;20178;-77
2022/02/02 18:28:13;;;;;;;13.75;8.13;;;10.70;99.90;;;;;;4985437;28;20193;-77
2022/02/02 18:49:10;;;;;;;16.70;8.70;;;11.10;99.90;;;;;;5014198;28;20247;-76
2022/02/02 18:52:19;;;;;;;13.55;7.30;;;11.10;99.90;;;;;;5007896;28;20206;-76
2022/02/02 18:54:42;;;;;;;13.02;7.88;;;11.20;99.90;;;;;;5004270;28;20268;-82
2022/02/02 19:05:53;;;;;;;16.23;11.55;;;11.40;99.90;;;;;;4998187;28;20585;-82
2022/02/02 20:05:20;;;;;;;12.75;10.10;;;12.00;99.90;;;;;;4973423;28;20273;-81
2022/02/02 20:07:50;;;;;;;11.90;9.25;;;11.90;99.90;;;;;;4994293;28;20198;-83
2022/02/02 20:12:51;;;;;;;12.27;9.30;;;11.90;99.90;;;;;;4996094;28;20186;-82
2022/02/02 20:15:17;;;;;;;13.93;10.13;;;11.90;99.90;;;;;;4988423;28;20182;-82
2022/02/02 20:17:45;;;;;;;15.15;11.00;;;12.00;99.90;;;;;;5010785;28;20194;-83
2022/02/02 20:20:13;;;;;;;14.30;10.40;;;12.00;99.90;;;;;;4988250;28;20269;-83
2022/02/02 20:22:43;;;;;;;12.93;10.30;;;12.00;99.90;;;;;;4980364;28;20221;-83
2022/02/02 20:25:11;;;;;;;12.18;10.05;;;12.00;99.90;;;;;;4995778;28;20178;-82
2022/02/02 20:27:37;;;;;;;10.75;8.45;;;12.00;99.90;;;;;;4996094;28;20178;-82
2022/02/02 20:30:09;;;;;;;12.48;8.45;;;12.00;99.90;;;;;;4995761;28;20198;-82
2022/02/02 20:32:35;;;;;;;8.90;8.00;;;12.00;99.90;;;;;;5013588;28;20205;-83
2022/02/02 20:35:03;;;;;;;9.90;8.90;;;12.00;99.90;;;;;;4984320;28;20172;-81
2022/02/02 20:37:29;;;;;;;11.30;8.23;;;12.10;99.90;;;;;;4996085;28;20574;-82
2022/02/02 20:40:00;;;;;;;12.83;8.53;;;12.10;99.90;;;;;;4964024;28;20205;-81
2022/02/02 20:42:41;;;;;;;12.43;8.57;;;12.10;99.90;;;;;;4988970;28;20598;-82
2022/02/02 21:04:20;;;;;;;12.88;9.07;;;12.10;99.90;;;;;;5013035;28;20174;-82
2022/02/02 21:09:49;;;;;;;11.80;8.73;;;12.10;99.90;;;;;;5013849;28;20214;-84
2022/02/02 21:15:28;;;;;;;10.75;8.70;;;12.10;99.90;;;;;;4983216;28;20170;-83
2022/02/02 21:18:13;;;;;;;10.45;8.20;;;12.10;99.90;;;;;;5009021;28;20181;-83
2022/02/02 21:21:01;;;;;;;9.85;8.75;;;12.10;99.90;;;;;;5002617;28;20181;-83
2022/02/02 21:23:43;;;;;;;14.35;9.77;;;12.10;99.90;;;;;;5014934;28;20292;-82
2022/02/02 21:26:17;;;;;;;10.38;8.45;;;12.10;99.90;;;;;;5000712;28;20224;-82
2022/02/02 21:28:43;;;;;;;14.60;10.55;;;12.10;99.90;;;;;;4997351;28;20210;-82
2022/02/02 21:31:10;;;;;;;12.03;10.00;;;12.10;99.90;;;;;;5027673;23;20217;-76
2022/02/02 21:33:38;;;;;;;9.90;8.65;;;12.10;99.90;;;;;;5041485;28;20248;-76
2022/02/02 21:36:08;;;;;;;10.70;9.38;;;12.10;99.90;;;;;;5030352;28;20752;-76
2022/02/02 21:38:43;;;;;;;11.82;10.57;;;12.10;99.90;;;;;;5039625;28;20559;-76
2022/02/02 21:41:16;;;;;;;13.60;11.30;;;12.10;99.90;;;;;;5032589;28;20571;-76
2022/02/02 21:43:41;;;;;;;12.57;10.25;;;12.10;99.90;;;;;;5037486;28;20186;-76
2022/02/02 21:46:07;;;;;;;12.37;10.60;;;12.10;99.90;;;;;;5025636;28;20174;-76
2022/02/02 21:48:34;;;;;;;13.07;9.20;;;12.10;99.90;;;;;;5043244;28;20202;-76
2022/02/02 21:51:07;;;;;;;11.20;9.50;;;12.10;99.90;;;;;;5032633;28;20217;-76
2022/02/02 21:53:33;;;;;;;13.15;11.07;;;12.10;99.90;;;;;;5025458;28;20618;-76
2022/02/02 21:55:59;;;;;;;12.17;10.73;;;12.20;99.90;;;;;;5020380;28;20181;-76
2022/02/02 21:58:25;;;;;;;15.53;9.83;;;12.20;99.90;;;;;;5023607;28;20173;-76
2022/02/02 22:00:51;;;;;;;14.33;11.60;;;12.20;99.90;;;;;;5025332;28;20292;-76
2022/02/02 22:03:17;;;;;;;13.07;10.70;;;12.20;99.90;;;;;;5030861;28;20173;-76
2022/02/02 22:05:43;;;;;;;11.85;10.63;;;12.20;99.90;;;;;;5029722;28;20185;-76
2022/02/02 22:08:10;;;;;;;12.53;10.70;;;12.20;99.90;;;;;;5019768;28;20170;-76
2022/02/02 22:10:38;;;;;;;14.35;12.00;;;12.20;99.90;;;;;;5020072;28;20194;-75
2022/02/02 22:13:04;;;;;;;14.38;12.98;;;12.20;99.90;;;;;;5037482;28;20197;-76
2022/02/02 22:15:40;;;;;;;15.60;12.45;;;12.20;99.90;;;;;;5027706;28;20182;-75
2022/02/02 22:18:05;;;;;;;14.43;11.80;;;12.20;99.90;;;;;;5023152;28;20669;-76
2022/02/02 22:20:31;;;;;;;17.00;12.30;;;12.20;99.90;;;;;;5027856;28;20200;-76
2022/02/02 22:22:57;;;;;;;12.30;10.52;;;12.20;99.90;;;;;;5022254;28;20174;-75
2022/02/02 22:25:23;;;;;;;14.80;11.10;;;12.10;99.90;;;;;;5020281;28;20200;-76
2022/02/02 22:27:49;;;;;;;12.50;11.10;;;12.10;99.90;;;;;;5040387;28;20182;-75
2022/02/02 22:30:16;;;;;;;12.67;10.90;;;12.10;99.90;;;;;;5036512;28;20205;-75
2022/02/02 22:32:41;;;;;;;13.65;11.65;;;12.00;99.90;;;;;;5028777;28;20597;-76
2022/02/02 22:35:07;;;;;;;15.67;11.53;;;12.00;99.90;;;;;;5027158;28;20182;-75
2022/02/02 22:37:33;;;;;;;15.95;12.70;;;11.90;99.90;;;;;;5021879;28;20198;-75
2022/02/02 22:40:00;;;;;;;13.73;12.00;;;11.90;99.90;;;;;;5016770;28;20209;-75
2022/02/02 22:42:28;;;;;;;14.70;13.13;;;11.80;99.90;;;;;;5036615;28;20186;-75
2022/02/02 22:44:57;;;;;;;13.70;11.95;;;11.80;99.90;;;;;;5026650;28;20189;-74
2022/02/02 22:47:23;;;;;;;16.27;14.32;;;11.80;99.90;;;;;;5015216;28;20711;-74
2022/02/02 22:49:51;;;;;;;15.80;13.40;;;11.70;99.90;;;;;;5032516;28;20573;-74
2022/02/02 22:52:19;;;;;;;14.48;12.50;;;11.70;99.90;;;;;;5026908;28;20198;-74
2022/02/02 22:54:44;;;;;;;14.35;12.00;;;11.70;99.90;;;;;;5034177;28;20216;-75
2022/02/02 22:57:10;;;;;;;15.07;12.53;;;11.70;99.90;;;;;;5021828;28;20182;-75
2022/02/02 22:59:39;;;;;;;13.37;11.83;;;11.70;99.90;;;;;;5032533;28;20671;-75
2022/02/02 23:02:19;;;;;;;15.23;12.65;;;11.70;99.90;;;;;;5025956;28;20197;-75
2022/02/02 23:04:45;;;;;;;16.52;12.65;;;11.70;99.90;;;;;;5027441;28;20181;-75
2022/02/02 23:07:11;;;;;;;15.97;12.87;;;11.60;99.90;;;;;;5032675;28;20177;-75
2022/02/02 23:09:38;;;;;;;14.97;12.70;;;11.70;99.90;;;;;;5029347;28;20186;-75
2022/02/02 23:12:04;;;;;;;14.25;12.55;;;11.70;99.90;;;;;;5024832;28;20988;-75
2022/02/02 23:14:35;;;;;;;17.30;14.25;;;11.60;99.90;;;;;;5025161;28;20174;-75
2022/02/02 23:17:02;;;;;;;16.02;13.80;;;11.60;99.90;;;;;;5031811;28;20173;-75
2022/02/02 23:19:30;;;;;;;15.75;12.85;;;11.60;99.90;;;;;;5029968;28;20170;-75
2022/02/02 23:21:58;;;;;;;14.65;12.98;;;11.60;99.90;;;;;;5023026;28;20209;-75
2022/02/02 23:24:24;;;;;;;15.70;12.50;;;11.60;99.90;;;;;;5042146;28;20178;-76
2022/02/02 23:26:49;;;;;;;13.65;11.70;;;11.60;99.90;;;;;;5032422;28;20263;-76
2022/02/02 23:29:17;;;;;;;16.90;13.00;;;11.60;99.90;;;;;;5022677;28;20225;-76
2022/02/02 23:31:44;;;;;;;13.93;12.48;;;11.60;99.90;;;;;;5007248;28;20220;-75
2022/02/02 23:34:13;;;;;;;13.25;11.32;;;11.60;99.90;;;;;;5022436;28;20170;-75
2022/02/02 23:36:39;;;;;;;15.40;11.65;;;11.60;99.90;;;;;;5023675;28;20178;-76
2022/02/02 23:39:06;;;;;;;13.75;12.23;;;11.60;99.90;;;;;;5033540;28;20193;-76